createdAt,value
2022-12-24T00:00:40.100Z,96125.81
2022-12-24T00:04:42.865Z,96140.25
2022-12-24T00:08:43.708Z,96142.44
2022-12-24T00:12:43.832Z,96130.16
2022-12-24T00:16:43.941Z,96158.16
2022-12-24T00:20:50.807Z,96146.88
2022-12-24T00:24:50.888Z,96161.94
2022-12-24T00:28:50.949Z,96170.34
2022-12-24T00:32:52.098Z,96156.69
2022-12-24T00:36:55.187Z,96166.84
2022-12-24T00:40:55.300Z,96178.63
2022-12-24T00:44:55.369Z,96187.00
2022-12-24T00:48:55.913Z,96200.91
2022-12-24T00:52:59.020Z,96174.22
2022-12-24T00:56:59.119Z,96189.13
2022-12-24T01:00:59.259Z,96186.38
2022-12-24T01:05:14.451Z,96183.09
2022-12-24T01:09:17.298Z,96200.88
2022-12-24T01:13:17.383Z,96208.38
2022-12-24T01:17:17.665Z,96205.69
2022-12-24T01:21:18.736Z,96228.16
2022-12-24T01:25:21.643Z,96230.41
2022-12-24T01:29:22.054Z,96228.16
2022-12-24T01:33:22.268Z,96238.19
2022-12-24T01:37:22.391Z,96234.94
2022-12-24T01:41:39.523Z,96231.28
2022-12-24T01:45:50.861Z,96262.84
2022-12-24T01:49:56.832Z,96262.44
2022-12-24T01:54:03.432Z,96267.47
2022-12-24T01:58:09.618Z,96297.22
2022-12-24T02:02:09.880Z,96295.50
2022-12-24T02:06:12.559Z,96307.22
2022-12-24T02:10:17.000Z,96312.03
2022-12-24T02:14:20.198Z,96308.41
2022-12-24T02:18:28.589Z,96313.28
2022-12-24T02:22:49.717Z,96327.47
2022-12-24T02:27:20.200Z,96317.97
2022-12-24T02:31:30.525Z,96353.88
2022-12-24T02:35:40.466Z,96327.84
2022-12-24T02:39:50.286Z,96319.31
2022-12-24T02:43:52.315Z,96345.31
2022-12-24T02:47:58.380Z,96357.63
2022-12-24T02:51:58.420Z,96357.22
2022-12-24T02:56:37.867Z,96357.72
2022-12-24T03:00:57.053Z,96351.34
2022-12-24T03:05:24.619Z,96341.44
2022-12-24T03:09:30.903Z,96366.06
2022-12-24T03:13:32.450Z,96370.88
2022-12-24T03:17:34.399Z,96384.19
2022-12-24T03:21:42.726Z,96363.91
2022-12-24T03:25:47.628Z,96392.72
2022-12-24T03:29:49.385Z,96386.66
2022-12-24T03:33:49.653Z,96411.19
2022-12-24T03:37:52.342Z,96399.47
2022-12-24T03:41:55.889Z,96415.41
2022-12-24T03:45:56.073Z,96396.53
2022-12-24T03:49:56.230Z,96403.84
2022-12-24T03:54:00.607Z,96413.81
2022-12-24T03:58:00.696Z,96428.16
2022-12-24T04:02:01.006Z,96415.00
2022-12-24T04:06:07.431Z,96390.59
2022-12-24T04:10:11.945Z,96431.38
2022-12-24T04:14:12.071Z,96450.50
2022-12-24T04:18:12.097Z,96442.84
2022-12-24T04:22:12.273Z,96437.19
2022-12-24T04:26:16.222Z,96449.25
2022-12-24T04:30:16.855Z,96445.41
2022-12-24T04:34:16.952Z,96444.63
2022-12-24T04:38:17.092Z,96468.66
2022-12-24T04:42:19.806Z,96444.72
2022-12-24T04:46:24.097Z,96456.91
2022-12-24T04:50:24.288Z,96455.09
2022-12-24T04:54:24.342Z,96473.06
2022-12-24T04:58:27.936Z,96473.50
2022-12-24T05:02:28.380Z,96477.81
2022-12-24T05:06:33.761Z,96484.50
2022-12-24T05:10:33.800Z,96488.56
2022-12-24T05:14:36.567Z,96480.31
2022-12-24T05:18:36.634Z,96483.22
2022-12-24T05:22:49.333Z,96474.09
2022-12-24T05:26:54.338Z,96480.47
2022-12-24T05:30:56.982Z,96430.63
2022-12-24T05:34:57.093Z,96498.72
2022-12-24T05:38:57.483Z,96499.78
2022-12-24T05:42:57.556Z,96517.41
2022-12-24T05:47:00.318Z,96498.72
2022-12-24T05:51:00.718Z,96520.63
2022-12-24T05:55:00.799Z,96546.75
2022-12-24T05:59:01.045Z,96531.56
2022-12-24T06:03:03.844Z,96558.47
2022-12-24T06:07:03.999Z,96560.09
2022-12-24T06:11:08.130Z,96579.81
2022-12-24T06:15:10.755Z,96555.84
2022-12-24T06:19:13.462Z,96572.59
2022-12-24T06:23:13.637Z,96574.78
2022-12-24T06:27:13.653Z,96569.72
2022-12-24T06:31:17.799Z,96560.66
2022-12-24T06:35:20.765Z,96571.28
2022-12-24T06:39:21.021Z,96573.44
2022-12-24T06:43:21.127Z,96563.31
2022-12-24T06:47:21.185Z,96577.72
2022-12-24T06:51:24.183Z,96560.09
2022-12-24T06:55:24.355Z,96597.19
2022-12-24T06:59:24.665Z,96607.91
2022-12-24T07:03:25.090Z,96610.56
2022-12-24T07:07:27.947Z,96617.50
2022-12-24T07:11:29.431Z,96616.97
2022-12-24T07:15:29.510Z,96635.91
2022-12-24T07:19:29.596Z,96619.91
2022-12-24T07:23:32.258Z,96639.38
2022-12-24T07:27:33.513Z,96584.13
2022-12-24T07:31:33.621Z,96654.09
2022-12-24T07:35:33.845Z,96653.31
2022-12-24T07:39:36.475Z,96651.38
2022-12-24T07:43:36.656Z,96644.66
2022-12-24T07:47:37.786Z,96657.84
2022-12-24T07:51:38.082Z,96655.16
2022-12-24T07:55:41.332Z,96659.44
2022-12-24T07:59:41.585Z,96653.53
2022-12-24T08:03:42.279Z,96678.94
2022-12-24T08:07:42.540Z,96560.88
2022-12-24T08:11:51.724Z,96667.47
2022-12-24T08:15:52.506Z,96671.72
2022-12-24T08:19:52.647Z,96683.44
2022-12-24T08:23:52.760Z,96674.41
2022-12-24T08:27:55.557Z,96672.25
2022-12-24T08:31:55.598Z,96681.81
2022-12-24T08:35:57.942Z,96658.56
2022-12-24T08:39:58.044Z,96682.41
2022-12-24T08:44:01.330Z,96699.75
2022-12-24T08:48:02.856Z,96700.00
2022-12-24T08:52:03.142Z,96716.59
2022-12-24T08:56:05.707Z,96690.84
2022-12-24T09:00:11.265Z,96725.91
2022-12-24T09:04:11.500Z,96725.34
2022-12-24T09:08:11.663Z,96713.91
2022-12-24T09:12:12.638Z,96737.41
2022-12-24T09:16:16.341Z,96743.72
2022-12-24T09:20:16.929Z,96748.56
2022-12-24T09:24:17.349Z,96753.81
2022-12-24T09:28:17.420Z,96721.16
2022-12-24T09:32:20.437Z,96745.94
2022-12-24T09:36:21.361Z,96738.66
2022-12-24T09:40:32.830Z,96778.47
2022-12-24T09:44:46.654Z,96787.88
2022-12-24T09:48:55.235Z,96732.53
2022-12-24T09:52:57.730Z,96781.72
2022-12-24T09:57:03.483Z,96773.91
2022-12-24T10:01:03.706Z,96790.03
2022-12-24T10:05:12.219Z,96772.09
2022-12-24T10:09:31.626Z,96774.00
2022-12-24T10:13:55.377Z,96789.47
2022-12-24T10:18:16.892Z,96766.09
2022-12-24T10:22:30.363Z,96792.41
2022-12-24T10:26:41.612Z,96794.28
2022-12-24T10:30:42.257Z,96789.50
2022-12-24T10:34:48.040Z,96793.06
2022-12-24T10:38:50.770Z,96786.97
2022-12-24T10:42:51.881Z,96788.81
2022-12-24T10:46:52.107Z,96795.94
2022-12-24T10:51:01.955Z,96798.03
2022-12-24T10:55:23.607Z,96811.50
2022-12-24T10:59:30.766Z,96794.53
2022-12-24T11:03:36.108Z,96798.09
2022-12-24T11:07:37.338Z,96791.78
2022-12-24T11:11:40.456Z,96813.22
2022-12-24T11:15:41.083Z,96799.72
2022-12-24T11:19:42.433Z,96808.19
2022-12-24T11:23:42.597Z,96811.94
2022-12-24T11:27:50.716Z,96823.38
2022-12-24T11:31:52.845Z,96801.69
2022-12-24T11:36:09.558Z,96807.63
2022-12-24T11:40:23.992Z,96807.84
2022-12-24T11:44:31.154Z,96800.59
2022-12-24T11:48:34.799Z,96795.28
2022-12-24T11:52:35.337Z,96797.06
2022-12-24T11:56:43.610Z,96797.16
2022-12-24T12:00:49.768Z,96803.81
2022-12-24T12:04:56.906Z,96796.91
2022-12-24T12:09:02.834Z,96796.97
2022-12-24T12:13:14.736Z,96803.31
2022-12-24T12:17:35.581Z,96772.63
2022-12-24T12:21:45.389Z,96815.13
2022-12-24T12:25:55.405Z,96816.56
2022-12-24T12:30:04.140Z,96772.28
2022-12-24T12:34:14.969Z,96824.63
2022-12-24T12:38:23.013Z,96823.91
2022-12-24T12:42:32.395Z,96820.88
2022-12-24T12:46:49.753Z,96811.91
2022-12-24T12:51:03.459Z,96836.94
2022-12-24T12:55:26.203Z,96853.16
2022-12-24T12:59:37.091Z,96830.16
2022-12-24T13:04:20.185Z,96840.81
2022-12-24T13:09:00.032Z,96840.50
2022-12-24T13:13:36.235Z,96836.63
2022-12-24T13:18:09.315Z,96832.56
2022-12-24T13:22:19.360Z,96837.81
2022-12-24T13:26:22.159Z,96841.22
2022-12-24T13:30:41.664Z,96844.59
2022-12-24T13:34:42.468Z,96845.13
2022-12-24T13:38:47.375Z,96846.06
2022-12-24T13:43:12.655Z,96858.47
2022-12-24T13:47:32.439Z,96858.03
2022-12-24T13:51:36.189Z,96861.44
2022-12-24T13:55:37.721Z,96820.63
2022-12-24T13:59:42.832Z,96836.22
2022-12-24T14:03:49.189Z,96872.59
2022-12-24T14:07:52.005Z,96874.81
2022-12-24T14:12:21.737Z,96873.69
2022-12-24T14:16:33.337Z,96866.75
2022-12-24T14:20:36.158Z,96886.03
2022-12-24T14:24:40.180Z,96859.84
2022-12-24T14:28:46.383Z,96894.06
2022-12-24T14:32:51.328Z,96875.91
2022-12-24T14:36:55.000Z,96905.59
2022-12-24T14:41:09.217Z,96902.16
2022-12-24T14:45:26.033Z,96903.72
2022-12-24T14:49:49.965Z,96907.44
2022-12-24T14:54:21.517Z,96893.56
2022-12-24T14:58:29.159Z,96925.91
2022-12-24T15:02:50.295Z,96937.91
2022-12-24T15:06:57.731Z,96934.16
2022-12-24T15:11:04.046Z,96936.81
2022-12-24T15:15:04.238Z,96934.16
2022-12-24T15:19:09.406Z,96934.16
2022-12-24T15:23:23.369Z,96927.19
2022-12-24T15:27:26.855Z,96932.50
2022-12-24T15:31:29.802Z,96929.75
2022-12-24T15:35:51.352Z,96933.47
2022-12-24T15:40:04.565Z,96946.22
2022-12-24T15:44:07.011Z,96946.94
2022-12-24T15:48:15.321Z,96952.13
2022-12-24T15:52:20.657Z,96949.97
2022-12-24T15:56:38.398Z,96938.69
2022-12-24T16:00:38.559Z,96970.38
2022-12-24T16:04:38.811Z,96982.13
2022-12-24T16:08:41.448Z,96958.53
2022-12-24T16:12:44.168Z,96981.16
2022-12-24T16:16:49.276Z,96978.59
2022-12-24T16:20:53.899Z,96979.69
2022-12-24T16:24:55.730Z,96982.44
2022-12-24T16:28:58.939Z,96986.72
2022-12-24T16:32:59.032Z,96988.88
2022-12-24T16:37:01.332Z,96982.63
2022-12-24T16:41:01.623Z,96994.16
2022-12-24T16:45:04.301Z,96995.44
2022-12-24T16:49:04.485Z,97003.44
2022-12-24T16:53:04.892Z,97018.44
2022-12-24T16:57:05.156Z,97019.53
2022-12-24T17:01:12.820Z,97033.56
2022-12-24T17:05:13.772Z,97029.41
2022-12-24T17:09:15.419Z,97040.66
2022-12-24T17:13:15.542Z,97041.16
2022-12-24T17:17:27.432Z,97018.97
2022-12-24T17:21:27.552Z,97050.09
2022-12-24T17:25:27.614Z,97034.38
2022-12-24T17:29:27.679Z,97056.44
2022-12-24T17:33:30.506Z,97055.28
2022-12-24T17:37:30.648Z,97054.31
2022-12-24T17:41:30.730Z,97041.97
2022-12-24T17:45:30.801Z,97040.94
2022-12-24T17:49:33.856Z,97054.13
2022-12-24T17:53:35.461Z,97033.75
2022-12-24T17:57:35.603Z,97041.75
2022-12-24T18:01:35.949Z,97040.09
2022-12-24T18:05:41.497Z,97034.88
2022-12-24T18:09:42.041Z,97050.91
2022-12-24T18:13:42.801Z,97034.16
2022-12-24T18:17:42.854Z,97057.19
2022-12-24T18:21:45.567Z,97050.72
2022-12-24T18:25:46.582Z,97058.50
2022-12-24T18:29:46.854Z,97070.69
2022-12-24T18:33:47.823Z,97059.63
2022-12-24T18:37:50.506Z,97068.66
2022-12-24T18:41:50.562Z,97067.56
2022-12-24T18:45:50.624Z,97075.69
2022-12-24T18:49:50.730Z,97081.22
2022-12-24T18:53:53.876Z,97083.63
2022-12-24T18:57:54.054Z,97081.00
2022-12-24T19:01:54.557Z,97091.44
2022-12-24T19:05:54.839Z,97090.72
2022-12-24T19:09:57.581Z,97052.06
2022-12-24T19:13:58.185Z,97089.38
2022-12-24T19:17:58.642Z,97102.50
2022-12-24T19:21:58.741Z,97108.88
2022-12-24T19:26:01.561Z,97098.19
2022-12-24T19:30:01.651Z,97099.34
2022-12-24T19:34:02.238Z,97089.75
2022-12-24T19:38:03.016Z,97082.75
2022-12-24T19:42:06.071Z,97087.56
2022-12-24T19:46:06.260Z,97091.28
2022-12-24T19:50:07.591Z,97080.59
2022-12-24T19:54:14.886Z,97073.34
2022-12-24T19:58:21.341Z,97091.34
2022-12-24T20:02:21.606Z,97106.06
2022-12-24T20:06:25.518Z,97123.91
2022-12-24T20:10:25.576Z,97126.03
2022-12-24T20:14:28.740Z,96923.56
2022-12-24T20:18:28.816Z,97124.50
2022-12-24T20:22:29.186Z,97137.84
2022-12-24T20:26:32.595Z,97092.28
2022-12-24T20:30:40.458Z,97137.41
2022-12-24T20:34:40.716Z,97138.66
2022-12-24T20:38:41.037Z,97151.50
2022-12-24T20:42:41.294Z,97163.00
2022-12-24T20:46:43.937Z,97152.78
2022-12-24T20:50:44.292Z,97157.13
2022-12-24T20:54:44.437Z,97144.81
2022-12-24T20:58:44.677Z,97162.56
2022-12-24T21:02:47.515Z,97161.06
2022-12-24T21:06:48.840Z,97145.19
2022-12-24T21:11:09.913Z,97173.84
2022-12-24T21:15:11.268Z,97148.25
2022-12-24T21:19:20.982Z,97172.84
2022-12-24T21:23:21.209Z,97154.25
2022-12-24T21:27:22.063Z,97160.69
2022-12-24T21:31:24.574Z,97159.44
2022-12-24T21:35:27.399Z,97138.25
2022-12-24T21:39:27.524Z,97119.94
2022-12-24T21:43:27.668Z,97135.13
2022-12-24T21:47:28.263Z,97113.28
2022-12-24T21:51:28.932Z,97130.66
2022-12-24T21:55:29.097Z,97138.72
2022-12-24T21:59:30.321Z,97088.63
2022-12-24T22:03:30.494Z,97145.53
2022-12-24T22:07:45.777Z,97150.28
2022-12-24T22:11:54.718Z,97128.50
2022-12-24T22:15:57.033Z,97146.44
2022-12-24T22:19:57.665Z,97142.09
2022-12-24T22:24:07.507Z,97145.78
2022-12-24T22:28:08.426Z,97146.22
2022-12-24T22:32:09.204Z,97164.72
2022-12-24T22:36:10.656Z,97136.16
2022-12-24T22:40:15.528Z,97143.44
2022-12-24T22:44:15.749Z,97162.00
2022-12-24T22:48:16.016Z,97123.34
2022-12-24T22:52:16.171Z,97136.75
2022-12-24T22:56:23.293Z,97156.84
2022-12-24T23:00:43.265Z,97156.47
2022-12-24T23:04:44.287Z,97164.47
2022-12-24T23:08:44.402Z,97164.59
2022-12-24T23:12:59.737Z,97157.16
2022-12-24T23:16:59.970Z,97158.28
2022-12-24T23:21:00.059Z,97163.78
2022-12-24T23:25:00.188Z,97157.19
2022-12-24T23:29:02.867Z,97151.41
2022-12-24T23:33:02.942Z,97153.03
2022-12-24T23:37:03.046Z,97161.09
2022-12-24T23:41:06.032Z,97158.28
2022-12-24T23:45:10.416Z,97175.41
2022-12-24T23:49:10.592Z,97162.41
2022-12-24T23:53:11.003Z,97171.44
2022-12-24T23:57:11.163Z,97183.06
